SCAR

Details ICAO SCAR (ARI)
Name CHACALLUTA
Region Chile
Timezone America/Santiago (UTC-4.0)
Plans Departing 47
Arriving 51
Stats Elevation 167 ft / 51 m (AMSL)
Location -18.348530° -70.338741°
Runways 1
Magnetic Variation 5.571° W
Sunrise 2018-05-21 11:03:40 UTC / 2018-05-21 07:03:40 Local
Sunset 2018-05-21 22:15:06 UTC / 2018-05-21 18:15:06 Local
Advertisement - Login to hide

Runways

ID Width Length Bearing (true) Bearing (mag) Surface Threshold Offset Overrun Length
02 148 ft / 45 m 7,184 ft / 2,190 m 19.17° 24.74° Asphalt 0 ft / 0 m 2,075 ft / 632 m
20 148 ft / 45 m 7,184 ft / 2,190 m 199.17° 204.74° Asphalt 0 ft / 0 m 197 ft / 60 m

Map

Weather


0- 5 10 15 20 25 30 35+ Temperature / ° C

Clouds and Precipitation
Forecast for 2018-05-21 12:00 UTC. Updated 2 hours ago

Ground ~20,000 ft ~40,000 ft Winds

METAR

SCAR 211300Z 08005KT 9999 OVC023 18/12 Q1016

TAF

TAF SCAR 210420Z 2106/2206 11004KT CAVOK TN15/2106Z TX21/2118Z BECMG 2110/2112 36004KT BECMG 2116/2118 21012KT BECMG 2122/2200 16004KT BECMG 2202/2204 31004KT BKN030

Frequencies

Ground 121.90 MHz GND
Approach 119.90 MHz ARICA APP
Tower 118.50 MHz ARICA TWR
Warning: Do not use this data for real-world aviation or navigation. No guarantee of current accuracy is given.